Time;durP1;ratioP1;P1;durP2;ratioP2;P2;SDS_P1;SDS_P2;PMS_P1;PMS_P2;Temp;Humidity;BMP_temperature;BMP_pressure;BME280_temperature;BME280_humidity;BME280_pressure;Samples;Min_cycle;Max_cycle;Signal;HPM_P1;HPM_P2
2022/07/02 00:01:57;;;;;;;5.88;1.10;;;;;;;11.64;53.02;102064.25;4994600;28;21034;-78
2022/07/02 00:04:27;;;;;;;6.03;1.88;;;;;;;11.66;52.93;102059.81;4997088;28;20582;-77
2022/07/02 00:06:53;;;;;;;8.52;1.60;;;;;;;11.67;53.06;102058.06;4994378;28;20057;-77
2022/07/02 00:09:19;;;;;;;3.95;1.45;;;;;;;11.68;53.04;102051.91;4998397;28;20085;-79
2022/07/02 00:11:47;;;;;;;1.20;0.70;;;;;;;11.70;52.83;102050.13;5001310;28;20037;-77
2022/07/02 00:14:14;;;;;;;5.95;1.33;;;;;;;11.74;52.78;102054.38;4980287;28;20073;-77
2022/07/02 00:16:44;;;;;;;1.65;1.05;;;;;;;11.68;52.65;102055.38;4980097;28;20018;-78
2022/07/02 00:19:09;;;;;;;1.98;1.70;;;;;;;11.69;52.61;102056.28;4992595;28;20773;-79
2022/07/02 00:21:39;;;;;;;3.22;1.58;;;;;;;11.63;52.39;102049.41;4994686;28;20045;-77
2022/07/02 00:24:09;;;;;;;4.60;2.42;;;;;;;11.55;52.89;102046.13;5010341;28;20037;-77
2022/07/02 00:26:39;;;;;;;3.50;1.35;;;;;;;11.52;52.89;102055.84;4981639;28;20052;-77
2022/07/02 00:29:24;;;;;;;2.92;2.05;;;;;;;11.51;52.79;102056.72;4979994;28;20042;-78
2022/07/02 00:31:49;;;;;;;1.90;1.25;;;;;;;11.48;53.01;102051.56;4998880;28;20038;-76
2022/07/02 00:34:16;;;;;;;1.52;1.17;;;;;;;11.46;52.87;102056.81;4998594;28;20406;-76
2022/07/02 00:36:43;;;;;;;3.80;2.03;;;;;;;11.43;52.93;102052.53;4998241;28;20061;-78
2022/07/02 00:39:09;;;;;;;2.22;1.75;;;;;;;11.41;52.77;102054.31;4999426;28;20045;-77
2022/07/02 00:41:35;;;;;;;3.15;1.65;;;;;;;11.37;52.80;102041.34;4980409;28;20041;-77
2022/07/02 00:44:03;;;;;;;4.35;1.05;;;;;;;11.37;52.79;102052.69;4984185;28;20295;-79
2022/07/02 00:46:30;;;;;;;6.28;2.17;;;;;;;11.34;52.71;102050.16;5001738;28;20037;-80
2022/07/02 00:48:55;;;;;;;1.30;1.13;;;;;;;11.32;53.00;102054.56;4987826;28;20053;-78
2022/07/02 00:51:21;;;;;;;3.55;1.02;;;;;;;11.34;52.83;102049.28;5001014;28;20484;-80
2022/07/02 00:53:47;;;;;;;3.40;1.35;;;;;;;11.34;52.68;102050.16;4994982;28;20042;-81
2022/07/02 00:56:13;;;;;;;2.72;1.30;;;;;;;11.29;52.80;102052.03;4983364;28;20145;-79
2022/07/02 00:58:38;;;;;;;2.95;2.65;;;;;;;11.29;53.16;102048.56;4998064;28;20615;-81
2022/07/02 01:01:04;;;;;;;3.17;1.10;;;;;;;11.27;53.03;102038.13;4998286;28;20033;-77
2022/07/02 01:03:30;;;;;;;3.60;1.75;;;;;;;11.31;53.10;102047.63;4979365;28;20499;-78
2022/07/02 01:05:56;;;;;;;5.47;2.05;;;;;;;11.32;52.96;102043.22;4995397;28;20044;-78
2022/07/02 01:11:10;;;;;;;3.20;1.30;;;;;;;11.41;52.56;102046.47;5011821;28;20127;-79
2022/07/02 01:13:35;;;;;;;2.38;1.50;;;;;;;11.34;52.25;102039.69;4996628;28;20041;-80
2022/07/02 01:16:01;;;;;;;2.92;1.70;;;;;;;11.36;52.44;102045.75;4999633;28;20080;-79
2022/07/02 01:18:26;;;;;;;2.83;1.60;;;;;;;11.36;52.15;102050.97;4998949;28;20155;-79
2022/07/02 01:20:52;;;;;;;4.30;1.20;;;;;;;11.36;52.24;102047.50;4994887;28;20034;-80
2022/07/02 01:23:17;;;;;;;1.60;1.38;;;;;;;11.29;52.05;102043.31;4997977;28;20098;-79
2022/07/02 01:25:50;;;;;;;6.13;1.77;;;;;;;11.22;52.32;102037.38;4999255;28;20454;-77
2022/07/02 01:28:16;;;;;;;2.05;1.35;;;;;;;11.19;52.61;102038.28;4998578;28;20404;-81
2022/07/02 01:30:41;;;;;;;4.30;1.77;;;;;;;11.18;52.54;102036.56;5000578;28;20033;-79
2022/07/02 01:33:07;;;;;;;4.03;1.77;;;;;;;11.20;52.26;102044.41;4997869;28;20147;-78
2022/07/02 01:35:32;;;;;;;1.35;1.20;;;;;;;11.23;52.36;102042.56;4998669;28;20128;-76
2022/07/02 01:37:58;;;;;;;2.40;1.63;;;;;;;11.20;52.12;102044.41;4997508;28;20038;-80
2022/07/02 01:40:23;;;;;;;4.68;1.60;;;;;;;11.10;52.11;102042.88;4998671;28;20033;-78
2022/07/02 01:42:49;;;;;;;3.95;1.52;;;;;;;11.05;52.61;102043.84;4981653;28;20399;-80
2022/07/02 01:45:14;;;;;;;1.40;1.10;;;;;;;10.98;52.48;102044.03;4999161;28;20837;-78
2022/07/02 01:47:40;;;;;;;2.00;1.38;;;;;;;10.94;52.49;102043.25;4997883;28;20058;-77
2022/07/02 01:50:07;;;;;;;1.95;1.63;;;;;;;10.92;52.55;102039.78;4983108;28;20192;-77
2022/07/02 01:52:32;;;;;;;13.45;3.55;;;;;;;10.91;52.85;102038.09;4999504;28;20041;-77
2022/07/02 01:54:58;;;;;;;3.72;2.00;;;;;;;10.90;52.79;102030.28;4998737;28;20029;-76
2022/07/02 01:57:23;;;;;;;3.53;1.55;;;;;;;10.90;52.85;102038.97;4998785;28;20053;-78
2022/07/02 01:59:49;;;;;;;3.70;1.90;;;;;;;10.91;53.15;102039.84;4995332;28;20062;-79
2022/07/02 02:02:15;;;;;;;3.47;2.35;;;;;;;10.94;52.71;102040.63;4997407;28;20025;-79
2022/07/02 02:04:41;;;;;;;2.08;1.60;;;;;;;10.93;52.90;102036.31;4999118;28;20153;-78
2022/07/02 02:07:07;;;;;;;4.55;1.75;;;;;;;10.91;52.97;102048.56;4998219;28;20199;-77
2022/07/02 02:09:32;;;;;;;3.97;1.65;;;;;;;10.97;52.88;102042.31;4998585;28;20492;-79
2022/07/02 02:11:58;;;;;;;4.90;1.35;;;;;;;10.94;53.03;102050.22;5009297;28;20038;-77
2022/07/02 02:14:24;;;;;;;5.75;2.28;;;;;;;10.81;53.61;102041.75;4980131;28;20921;-78
2022/07/02 02:16:50;;;;;;;2.38;1.50;;;;;;;10.90;53.38;102036.34;4996403;28;20121;-75
2022/07/02 02:19:15;;;;;;;2.90;1.77;;;;;;;10.98;52.97;102038.81;4997210;28;20104;-80
2022/07/02 02:21:41;;;;;;;6.07;1.50;;;;;;;10.93;53.10;102038.91;5015202;28;20022;-77
2022/07/02 02:24:07;;;;;;;2.05;1.77;;;;;;;10.93;52.71;102036.31;4997634;28;20069;-76
2022/07/02 02:26:32;;;;;;;2.20;1.67;;;;;;;10.88;52.90;102035.53;4999437;28;20024;-79
2022/07/02 02:28:58;;;;;;;2.70;2.05;;;;;;;10.82;53.07;102038.31;4995599;28;20106;-79
2022/07/02 02:31:25;;;;;;;4.47;1.38;;;;;;;10.84;53.01;102039.13;4999076;28;20462;-77
2022/07/02 02:33:51;;;;;;;5.82;2.03;;;;;;;10.78;52.95;102037.47;4977324;28;20540;-78
2022/07/02 02:36:17;;;;;;;2.60;1.63;;;;;;;10.79;52.71;102033.97;4997180;28;20057;-76
2022/07/02 02:38:46;;;;;;;3.22;1.83;;;;;;;10.78;52.86;102037.47;4996628;28;20038;-79
2022/07/02 02:41:12;;;;;;;5.68;1.50;;;;;;;10.82;52.66;102033.06;4999168;28;20809;-77
2022/07/02 02:43:37;;;;;;;3.33;1.58;;;;;;;10.81;52.84;102033.91;4995650;28;20107;-79
2022/07/02 02:46:04;;;;;;;4.35;1.85;;;;;;;10.73;52.70;102038.47;4997234;28;20037;-78
2022/07/02 02:48:30;;;;;;;2.42;1.48;;;;;;;10.62;53.08;102042.19;5011547;28;20045;-81
2022/07/02 02:50:57;;;;;;;9.23;1.73;;;;;;;10.57;53.08;102049.28;4983466;28;20041;-78
2022/07/02 02:53:22;;;;;;;5.70;2.40;;;;;;;10.54;53.05;102053.69;4996792;28;20069;-80
2022/07/02 02:55:48;;;;;;;6.63;1.80;;;;;;;10.49;53.42;102056.41;4997669;28;20085;-77
2022/07/02 02:58:13;;;;;;;2.75;1.92;;;;;;;10.51;53.48;102074.69;4995977;28;20092;-77
2022/07/02 03:00:39;;;;;;;3.45;1.70;;;;;;;10.52;53.33;102068.53;4999695;28;20474;-79
2022/07/02 03:03:04;;;;;;;2.38;1.98;;;;;;;10.52;53.49;102060.69;4995863;28;20050;-80
2022/07/02 03:05:29;;;;;;;3.13;2.15;;;;;;;10.48;53.59;102069.50;4980908;28;20030;-78
2022/07/02 03:07:55;;;;;;;3.67;1.98;;;;;;;10.45;53.45;102075.66;4996056;28;20065;-81
2022/07/02 03:10:20;;;;;;;3.00;1.80;;;;;;;10.44;53.67;102071.31;4998548;28;20034;-79
2022/07/02 03:12:46;;;;;;;3.80;2.28;;;;;;;10.45;53.47;102066.94;4979758;28;20422;-78
2022/07/02 03:15:12;;;;;;;4.03;1.95;;;;;;;10.43;53.56;102066.97;4980822;28;20045;-80
2022/07/02 03:17:37;;;;;;;7.03;2.03;;;;;;;10.47;53.61;102063.41;4998755;28;20675;-79
2022/07/02 03:20:03;;;;;;;2.60;1.92;;;;;;;10.43;53.58;102067.81;4994232;28;20131;-79
2022/07/02 03:22:29;;;;;;;3.50;2.33;;;;;;;10.43;53.67;102062.59;4995161;28;20034;-79
2022/07/02 03:24:55;;;;;;;4.72;2.30;;;;;;;10.47;53.36;102068.63;4996266;28;20120;-77
2022/07/02 03:27:20;;;;;;;2.30;1.90;;;;;;;10.54;53.48;102075.44;5000923;28;20041;-78
2022/07/02 03:29:46;;;;;;;2.80;2.00;;;;;;;10.55;53.11;102061.50;4998450;28;20041;-79
2022/07/02 03:32:12;;;;;;;3.28;1.90;;;;;;;10.55;53.44;102071.97;4997544;28;20546;-80
2022/07/02 03:34:37;;;;;;;2.42;1.42;;;;;;;10.61;53.19;102082.28;5000065;28;20044;-77
2022/07/02 03:37:03;;;;;;;3.83;1.52;;;;;;;10.66;53.39;102078.69;4995877;28;20062;-77
2022/07/02 03:39:29;;;;;;;2.42;2.10;;;;;;;10.68;53.18;102076.91;5012003;28;20045;-78
2022/07/02 03:41:54;;;;;;;6.38;1.90;;;;;;;10.65;53.16;102077.84;4996628;28;20087;-78
2022/07/02 03:44:20;;;;;;;4.13;2.17;;;;;;;10.69;53.23;102078.66;4999150;28;20637;-80
2022/07/02 03:46:45;;;;;;;2.35;1.48;;;;;;;10.76;52.87;102081.09;4998700;28;20046;-77
2022/07/02 03:49:11;;;;;;;4.05;1.30;;;;;;;10.77;53.00;102084.56;4985305;28;20649;-79
2022/07/02 03:51:36;;;;;;;4.07;2.10;;;;;;;10.77;52.82;102079.34;5000839;28;20338;-79
2022/07/02 03:54:02;;;;;;;2.90;2.00;;;;;;;10.84;52.49;102078.38;4997379;28;20069;-80
2022/07/02 03:56:28;;;;;;;6.78;2.10;;;;;;;10.83;52.72;102084.47;5001285;28;20030;-79
2022/07/02 03:58:56;;;;;;;3.08;1.92;;;;;;;10.87;52.53;102078.28;4997788;28;20575;-77
2022/07/02 04:01:22;;;;;;;3.50;1.23;;;;;;;10.92;52.55;102083.41;5016007;28;20048;-78
2022/07/02 04:03:48;;;;;;;3.42;1.77;;;;;;;10.95;52.39;102084.22;4997145;28;20567;-77
2022/07/02 04:06:13;;;;;;;8.02;2.10;;;;;;;11.03;52.42;102086.66;4987633;28;20033;-77
2022/07/02 04:08:39;;;;;;;4.05;1.90;;;;;;;11.02;52.17;102091.03;5012661;28;20225;-77
2022/07/02 04:11:04;;;;;;;5.13;2.30;;;;;;;11.07;52.32;102085.69;5004442;28;20402;-79
2022/07/02 04:13:30;;;;;;;5.78;1.80;;;;;;;11.05;52.63;102088.31;4998869;28;20038;-78
2022/07/02 04:15:55;;;;;;;5.75;1.80;;;;;;;11.15;52.57;102088.13;5016449;28;20040;-79
2022/07/02 04:18:21;;;;;;;3.17;1.88;;;;;;;11.24;52.17;102087.91;4984850;28;20053;-78
2022/07/02 04:20:47;;;;;;;2.58;1.25;;;;;;;11.30;52.15;102092.13;5000266;28;20034;-77
2022/07/02 04:23:12;;;;;;;2.70;1.58;;;;;;;11.32;51.80;102091.19;5012372;28;20038;-77
2022/07/02 04:25:38;;;;;;;2.08;1.88;;;;;;;11.41;51.89;102084.88;5001858;28;20046;-78
2022/07/02 04:28:04;;;;;;;3.13;1.67;;;;;;;11.54;51.52;102093.31;4997330;28;20057;-77
2022/07/02 04:30:29;;;;;;;5.80;1.98;;;;;;;11.60;51.47;102095.78;4985325;28;20032;-77
2022/07/02 04:32:55;;;;;;;5.10;1.73;;;;;;;11.84;51.19;102095.19;4996525;28;20044;-78
2022/07/02 04:35:21;;;;;;;2.45;1.67;;;;;;;11.94;50.61;102097.56;5000234;28;20428;-79
2022/07/02 04:37:46;;;;;;;4.88;1.77;;;;;;;12.02;50.62;102098.22;4999881;28;20046;-79
2022/07/02 04:40:12;;;;;;;2.72;1.50;;;;;;;12.05;50.43;102100.75;4997295;28;20111;-77
2022/07/02 04:42:38;;;;;;;3.63;1.20;;;;;;;12.24;50.28;102109.81;4997284;28;20026;-79
2022/07/02 04:45:04;;;;;;;1.42;1.30;;;;;;;12.35;49.93;102108.69;4997782;28;20045;-79
2022/07/02 04:47:30;;;;;;;3.75;2.10;;;;;;;12.49;49.67;102103.91;5013854;28;20049;-79
2022/07/02 04:49:55;;;;;;;2.35;1.27;;;;;;;12.47;49.74;102105.72;4996433;28;20109;-78
2022/07/02 04:52:21;;;;;;;4.22;1.40;;;;;;;12.42;49.20;102107.59;4999885;28;20034;-77
2022/07/02 04:54:46;;;;;;;3.88;1.50;;;;;;;12.74;49.01;102111.13;4999396;28;20049;-78
2022/07/02 04:57:12;;;;;;;4.13;1.38;;;;;;;12.63;48.71;102107.00;4986825;28;20141;-77
2022/07/02 04:59:37;;;;;;;1.83;1.30;;;;;;;12.77;48.49;102114.50;4998098;28;20046;-79
2022/07/02 05:02:03;;;;;;;3.80;1.48;;;;;;;12.05;50.60;102111.25;4996765;28;20345;-77
2022/07/02 05:04:29;;;;;;;1.42;0.93;;;;;;;12.80;49.00;102113.53;5003508;28;20038;-76
2022/07/02 05:06:54;;;;;;;6.50;1.60;;;;;;;13.26;48.03;102117.38;4999168;28;20041;-77
2022/07/02 05:09:20;;;;;;;2.65;0.98;;;;;;;14.15;45.92;102114.44;4997722;28;20046;-77
2022/07/02 05:11:45;;;;;;;5.22;0.90;;;;;;;16.08;42.23;102113.91;5000044;28;20049;-79
2022/07/02 05:14:11;;;;;;;4.80;1.38;;;;;;;18.28;38.05;102108.66;5007125;28;20041;-81
2022/07/02 05:16:37;;;;;;;3.83;0.77;;;;;;;20.22;35.33;102108.25;4984751;28;20033;-80
2022/07/02 05:19:02;;;;;;;2.17;0.68;;;;;;;21.72;30.19;102103.00;4982255;28;20034;-80
2022/07/02 05:21:28;;;;;;;3.42;0.75;;;;;;;22.18;29.84;102094.47;4984535;28;20122;-78
2022/07/02 05:23:53;;;;;;;3.03;0.80;;;;;;;22.88;28.01;102088.59;4996615;28;20117;-80
2022/07/02 05:26:20;;;;;;;9.85;0.90;;;;;;;22.91;30.04;102099.03;5001075;28;20030;-78
2022/07/02 05:28:46;;;;;;;2.38;0.70;;;;;;;23.06;27.79;102096.19;4998308;28;20050;-80
2022/07/02 05:31:11;;;;;;;1.75;0.93;;;;;;;22.92;29.00;102092.75;4986405;28;20041;-81
2022/07/02 05:33:37;;;;;;;4.88;0.35;;;;;;;23.93;27.52;102092.25;5000534;28;20042;-80
2022/07/02 05:36:03;;;;;;;5.25;0.52;;;;;;;24.49;26.61;102094.09;4983947;28;20476;-80
2022/07/02 05:38:29;;;;;;;3.40;0.63;;;;;;;24.58;26.37;102093.34;4985888;28;20046;-78
2022/07/02 05:40:54;;;;;;;2.25;0.50;;;;;;;24.32;26.52;102097.22;5017477;28;20037;-77
2022/07/02 05:43:20;;;;;;;2.63;0.50;;;;;;;24.92;25.20;102109.28;5000015;28;20560;-79
2022/07/02 05:45:48;;;;;;;7.20;0.60;;;;;;;25.34;25.05;102103.19;4987056;28;20073;-79
2022/07/02 05:48:13;;;;;;;2.15;0.50;;;;;;;25.19;26.41;102113.34;5002360;28;20038;-82
2022/07/02 05:50:39;;;;;;;2.45;0.52;;;;;;;25.53;25.36;102119.44;4987482;28;20186;-79
2022/07/02 05:53:05;;;;;;;4.05;0.85;;;;;;;26.13;23.93;102103.56;4999944;28;20048;-75
2022/07/02 05:55:31;;;;;;;3.08;0.50;;;;;;;26.51;24.69;102107.34;5006465;28;20053;-79
2022/07/02 05:57:57;;;;;;;1.30;0.73;;;;;;;26.94;23.51;102111.56;5000632;28;21983;-79
2022/07/02 06:00:22;;;;;;;3.92;0.77;;;;;;;26.70;23.69;102111.97;4998632;28;20116;-80
2022/07/02 06:02:48;;;;;;;1.98;0.63;;;;;;;25.24;25.29;102116.47;5014740;28;20038;-77
2022/07/02 06:07:58;;;;;;;2.30;0.60;;;;;;;24.90;25.93;102111.22;4994540;28;20643;-77
2022/07/02 06:10:24;;;;;;;7.13;0.75;;;;;;;25.25;25.73;102119.03;4998605;28;20041;-78
2022/07/02 06:12:52;;;;;;;3.45;0.50;;;;;;;27.01;24.16;102114.53;4980264;28;20045;-78
2022/07/02 06:15:19;;;;;;;2.72;0.55;;;;;;;27.71;23.42;102108.00;4999562;28;20511;-80
2022/07/02 06:17:46;;;;;;;4.35;1.05;;;;;;;28.48;22.19;102110.56;4995200;28;20065;-79
2022/07/02 06:20:13;;;;;;;3.58;1.10;;;;;;;28.13;22.07;102115.69;4980528;28;20121;-79
2022/07/02 06:22:38;;;;;;;6.18;0.85;;;;;;;28.67;21.39;102115.84;4997154;28;20038;-77
2022/07/02 06:25:05;;;;;;;3.67;1.10;;;;;;;26.18;24.16;102119.22;4996959;28;20041;-77
2022/07/02 06:27:33;;;;;;;1.30;0.90;;;;;;;26.93;22.91;102122.44;4997333;28;20835;-79
2022/07/02 06:30:03;;;;;;;1.67;0.65;;;;;;;27.24;22.86;102128.56;4996972;28;20037;-78
2022/07/02 06:32:29;;;;;;;4.95;0.85;;;;;;;27.23;22.96;102119.66;4997718;28;20033;-78
2022/07/02 06:34:55;;;;;;;2.85;0.80;;;;;;;27.72;21.78;102122.31;4994605;28;20049;-78
2022/07/02 06:37:21;;;;;;;3.70;0.82;;;;;;;27.55;21.75;102131.91;4999294;28;20034;-79
2022/07/02 06:39:47;;;;;;;3.22;0.98;;;;;;;28.28;21.63;102126.78;4995748;28;20132;-76
2022/07/02 06:42:26;;;;;;;4.65;1.05;;;;;;;26.89;22.72;102136.13;4985553;28;20026;-79
2022/07/02 06:44:56;;;;;;;2.40;1.10;;;;;;;26.29;24.24;102129.88;4990556;28;20050;-78
2022/07/02 06:47:22;;;;;;;1.98;0.68;;;;;;;26.74;23.25;102128.59;4999202;28;20026;-80
2022/07/02 06:49:49;;;;;;;3.85;0.95;;;;;;;25.80;24.19;102134.09;5000481;28;20115;-79
2022/07/02 06:52:15;;;;;;;5.03;1.17;;;;;;;27.07;22.78;102135.41;4996690;28;20572;-79
2022/07/02 06:54:42;;;;;;;1.88;0.95;;;;;;;26.09;24.51;102139.66;4994338;28;20504;-77
2022/07/02 06:57:08;;;;;;;3.00;1.00;;;;;;;26.78;24.58;102132.72;4981369;28;20030;-79
2022/07/02 06:59:34;;;;;;;6.70;1.02;;;;;;;26.09;25.08;102134.31;4998400;28;20038;-80
2022/07/02 07:02:00;;;;;;;5.35;1.33;;;;;;;27.30;23.27;102128.84;4999184;28;20046;-79
2022/07/02 07:04:28;;;;;;;2.00;0.60;;;;;;;28.90;20.83;102131.53;4981041;28;20740;-78
2022/07/02 07:06:55;;;;;;;5.60;0.88;;;;;;;25.76;24.55;102132.69;4996490;28;20065;-81
2022/07/02 07:09:20;;;;;;;7.68;0.80;;;;;;;24.12;26.10;102129.03;4998293;28;20054;-81
2022/07/02 07:11:46;;;;;;;3.80;0.63;;;;;;;25.18;25.26;102138.41;4998120;28;20060;-79
2022/07/02 07:14:12;;;;;;;3.70;0.57;;;;;;;27.81;22.33;102132.19;4996970;28;20053;-79
2022/07/02 07:16:37;;;;;;;4.22;1.05;;;;;;;28.24;21.04;102141.53;4997751;28;20034;-77
2022/07/02 07:19:07;;;;;;;3.67;0.60;;;;;;;28.77;21.34;102136.44;4998094;28;20792;-79
2022/07/02 07:21:33;;;;;;;2.00;1.10;;;;;;;27.94;21.56;102134.53;5000447;28;20036;-79
2022/07/02 07:23:59;;;;;;;3.55;0.60;;;;;;;25.87;23.33;102136.13;4994037;28;20052;-79
2022/07/02 07:26:24;;;;;;;4.68;0.55;;;;;;;27.16;22.18;102139.13;5004070;28;20117;-77
2022/07/02 07:28:50;;;;;;;1.77;0.45;;;;;;;27.39;21.40;102139.72;4978078;28;20520;-74
2022/07/02 07:31:21;;;;;;;4.47;0.52;;;;;;;24.96;23.65;102145.50;4983787;28;20022;-80
2022/07/02 07:33:47;;;;;;;;;;;;;;;24.58;23.30;102149.47;4978097;28;20085;-79
2022/07/02 07:36:13;;;;;;;3.10;0.20;;;;;;;24.98;21.73;102143.59;5009916;28;19924;-77
2022/07/02 07:38:39;;;;;;;1.83;0.10;;;;;;;23.47;23.36;102148.28;5010905;28;20041;-78
2022/07/02 07:41:05;;;;;;;2.50;0.20;;;;;;;25.22;21.85;102154.09;5013899;28;20334;-78
2022/07/02 07:43:30;;;;;;;1.13;0.10;;;;;;;26.68;19.71;102146.94;4991316;28;20508;-80
2022/07/02 07:45:56;;;;;;;5.47;0.30;;;;;;;26.42;19.35;102143.03;4991924;28;20026;-78
2022/07/02 07:48:22;;;;;;;1.00;0.40;;;;;;;27.18;19.00;102146.06;5004912;28;20485;-80
2022/07/02 07:50:47;;;;;;;2.92;0.38;;;;;;;24.86;21.50;102147.22;5004196;28;20033;-79
2022/07/02 07:53:13;;;;;;;1.30;0.10;;;;;;;23.54;21.96;102150.38;5002750;28;20042;-75
2022/07/02 07:55:39;;;;;;;1.08;0.30;;;;;;;23.79;22.60;102153.84;5000840;28;20030;-80
2022/07/02 07:58:05;;;;;;;0.40;0.10;;;;;;;24.13;22.01;102161.94;5019846;28;20056;-79
2022/07/02 08:00:31;;;;;;;1.38;0.10;;;;;;;26.87;19.68;102161.38;4985935;28;20033;-77
2022/07/02 08:02:56;;;;;;;0.47;0.10;;;;;;;27.20;18.84;102159.34;4983612;28;20813;-79
2022/07/02 08:05:22;;;;;;;2.90;0.10;;;;;;;27.01;18.94;102161.00;5001332;28;20038;-79
2022/07/02 08:07:48;;;;;;;0.65;0.10;;;;;;;26.84;18.03;102167.03;5015495;28;20088;-80
2022/07/02 08:10:13;;;;;;;5.03;0.20;;;;;;;28.41;17.73;102168.59;4999305;28;20456;-78
2022/07/02 08:12:41;;;;;;;1.63;0.20;;;;;;;29.28;16.99;102178.00;5005033;28;20029;-79
2022/07/02 08:15:07;;;;;;;0.22;0.00;;;;;;;27.77;17.99;102171.06;5004276;28;20472;-78
2022/07/02 08:17:33;;;;;;;0.70;0.10;;;;;;;25.61;19.36;102175.84;5003965;28;20026;-78
2022/07/02 08:19:59;;;;;;;1.42;0.10;;;;;;;25.13;19.81;102170.91;5000873;28;20080;-76
2022/07/02 08:22:24;;;;;;;0.73;0.10;;;;;;;26.56;18.68;102169.47;4998234;28;20469;-76
2022/07/02 08:24:51;;;;;;;1.08;0.20;;;;;;;27.46;19.12;102184.63;4998144;28;20046;-78
2022/07/02 08:27:17;;;;;;;1.77;0.22;;;;;;;27.34;17.50;102176.84;4997841;28;20068;-77
2022/07/02 08:29:42;;;;;;;1.35;0.10;;;;;;;25.94;19.70;102179.31;4997040;28;20042;-76
2022/07/02 08:32:08;;;;;;;4.85;0.65;;;;;;;25.52;20.29;102175.78;4993447;28;20046;-79
2022/07/02 08:34:33;;;;;;;3.28;0.22;;;;;;;27.84;18.03;102169.47;4980868;28;20037;-78
2022/07/02 08:36:59;;;;;;;3.13;0.20;;;;;;;25.74;19.45;102175.66;4998411;28;20463;-78
2022/07/02 08:39:25;;;;;;;0.50;0.10;;;;;;;26.81;19.00;102175.38;4979786;28;20046;-80
2022/07/02 08:41:52;;;;;;;1.17;0.10;;;;;;;26.59;19.19;102163.88;4995193;28;20069;-78
2022/07/02 08:44:21;;;;;;;0.13;0.05;;;;;;;26.27;19.34;102166.69;4981710;28;20076;-77
2022/07/02 08:46:47;;;;;;;3.15;0.47;;;;;;;27.03;18.84;102167.06;4999153;28;20063;-78
2022/07/02 08:49:20;;;;;;;0.90;0.05;;;;;;;27.77;18.25;102167.53;4997097;28;20092;-77
2022/07/02 08:52:04;;;;;;;0.73;0.10;;;;;;;27.68;19.31;102170.09;5013381;28;20463;-79
2022/07/02 08:54:34;;;;;;;1.95;0.10;;;;;;;26.46;19.15;102169.44;4994957;28;20034;-78
2022/07/02 08:57:01;;;;;;;3.65;0.20;;;;;;;24.48;19.70;102187.72;5010897;28;20057;-81
2022/07/02 08:59:32;;;;;;;2.33;0.28;;;;;;;25.24;20.80;102178.91;4995443;28;20106;-78
2022/07/02 09:02:00;;;;;;;1.15;0.10;;;;;;;24.65;19.89;102180.06;4997049;28;20046;-80
2022/07/02 09:04:26;;;;;;;4.05;0.20;;;;;;;25.55;19.45;102179.00;4995743;28;20039;-78
2022/07/02 09:06:57;;;;;;;3.35;0.10;;;;;;;25.17;20.06;102174.16;5010415;28;20081;-78
2022/07/02 09:09:27;;;;;;;1.63;0.10;;;;;;;26.62;19.58;102163.56;4996556;28;20117;-77
2022/07/02 09:11:54;;;;;;;0.73;0.30;;;;;;;27.18;18.52;102170.19;4993030;28;20161;-80
2022/07/02 09:14:20;;;;;;;3.08;0.10;;;;;;;28.56;17.60;102164.44;4977876;28;20108;-78
2022/07/02 09:16:50;;;;;;;0.80;0.20;;;;;;;27.53;18.23;102158.91;4991089;28;20038;-77
2022/07/02 09:19:17;;;;;;;0.10;0.00;;;;;;;27.65;18.33;102159.63;4994467;28;20045;-77
2022/07/02 09:21:46;;;;;;;1.58;0.10;;;;;;;28.53;18.72;102151.28;4974119;28;20072;-77
2022/07/02 09:24:12;;;;;;;3.72;0.20;;;;;;;29.19;17.06;102146.63;4989815;28;20109;-76
2022/07/02 09:26:38;;;;;;;1.67;0.00;;;;;;;28.75;16.05;102137.44;4993591;28;20033;-78
2022/07/02 09:29:04;;;;;;;1.08;0.10;;;;;;;28.38;16.74;102136.66;4991097;28;20045;-79
2022/07/02 09:31:47;;;;;;;0.63;0.10;;;;;;;28.50;16.55;102125.56;4993340;28;20094;-78
2022/07/02 09:34:24;;;;;;;0.75;0.10;;;;;;;26.20;19.28;102146.75;4970314;28;20038;-77
2022/07/02 09:36:49;;;;;;;1.73;0.10;;;;;;;27.49;17.15;102136.00;4995379;28;20128;-80
2022/07/02 09:39:26;;;;;;;1.42;0.20;;;;;;;24.48;20.21;102134.28;5012075;28;20038;-79
2022/07/02 09:41:52;;;;;;;1.35;0.30;;;;;;;26.17;20.25;102130.94;4991517;28;20038;-78
2022/07/02 09:44:17;;;;;;;1.80;0.10;;;;;;;25.80;18.43;102128.75;4997614;28;20964;-78
2022/07/02 09:46:43;;;;;;;1.70;0.10;;;;;;;25.01;19.31;102134.44;4995140;28;20040;-78
2022/07/02 09:49:09;;;;;;;0.40;0.10;;;;;;;22.86;21.73;102132.31;4978392;28;20120;-77
2022/07/02 09:51:54;;;;;;;1.13;0.10;;;;;;;22.93;22.71;102141.56;4996541;28;20152;-76
2022/07/02 09:54:24;;;;;;;0.50;0.10;;;;;;;24.50;20.90;102127.84;5001212;28;20046;-79
2022/07/02 09:56:57;;;;;;;3.95;0.25;;;;;;;23.37;22.04;102129.47;4997263;28;20855;-78
2022/07/02 09:59:24;;;;;;;2.88;0.00;;;;;;;21.69;22.31;102157.28;4999403;28;20037;-79
2022/07/02 10:01:50;;;;;;;0.90;0.10;;;;;;;21.41;22.50;102136.94;4997340;28;20037;-76
2022/07/02 10:04:16;;;;;;;1.63;0.28;;;;;;;20.54;24.15;102130.97;4999008;28;20598;-77
2022/07/02 10:06:43;;;;;;;0.88;0.10;;;;;;;20.67;23.88;102138.19;4984750;28;20072;-76
2022/07/02 10:09:11;;;;;;;0.63;0.10;;;;;;;22.12;22.83;102141.03;4994892;28;20104;-77
2022/07/02 10:11:37;;;;;;;0.10;0.00;;;;;;;22.51;23.04;102139.19;5012359;28;20047;-77
2022/07/02 10:14:04;;;;;;;1.20;0.10;;;;;;;21.35;23.39;102127.59;4992968;28;20046;-75
2022/07/02 10:16:30;;;;;;;0.50;0.00;;;;;;;20.73;24.10;102141.31;4983220;28;20057;-74
2022/07/02 10:18:59;;;;;;;0.65;0.10;;;;;;;21.36;23.71;102131.94;4976988;28;20042;-77
2022/07/02 10:21:25;;;;;;;0.30;0.10;;;;;;;21.41;24.11;102150.25;4997585;28;20034;-80
2022/07/02 10:23:51;;;;;;;0.63;0.10;;;;;;;21.39;23.96;102148.63;5012545;28;20124;-76
2022/07/02 10:26:17;;;;;;;1.67;0.10;;;;;;;22.01;23.32;102146.22;4999842;28;20040;-78
2022/07/02 10:28:42;;;;;;;0.88;0.10;;;;;;;22.87;23.70;102140.19;4997287;28;20123;-78
2022/07/02 10:31:16;;;;;;;0.35;0.10;;;;;;;21.81;23.42;102128.13;4996194;28;20068;-78
2022/07/02 10:34:03;;;;;;;0.45;0.30;;;;;;;21.38;23.48;102136.28;4988224;28;20758;-77
2022/07/02 10:36:29;;;;;;;0.32;0.00;;;;;;;21.26;24.32;102136.13;4992935;28;20034;-77
2022/07/02 10:38:59;;;;;;;0.40;0.10;;;;;;;22.45;25.08;102139.66;4994292;28;20042;-78
2022/07/02 10:41:26;;;;;;;0.10;0.00;;;;;;;22.58;24.19;102134.25;4978583;28;20045;-78
2022/07/02 10:43:54;;;;;;;1.42;0.00;;;;;;;22.65;22.80;102132.00;4996350;28;20042;-79
2022/07/02 10:46:24;;;;;;;1.05;0.10;;;;;;;22.41;22.93;102130.16;4998842;28;20033;-79
2022/07/02 10:48:54;;;;;;;0.73;0.10;;;;;;;22.74;24.08;102128.72;4978406;28;20048;-78
2022/07/02 10:51:24;;;;;;;1.00;0.00;;;;;;;22.83;23.63;102122.75;4981557;28;20103;-78
2022/07/02 10:53:52;;;;;;;0.70;0.40;;;;;;;23.05;23.61;102123.81;4992159;28;20141;-78
2022/07/02 10:56:18;;;;;;;0.77;0.10;;;;;;;21.96;24.35;102127.91;5012065;28;20046;-80
2022/07/02 10:58:44;;;;;;;0.55;0.03;;;;;;;23.14;24.87;102125.78;4979797;28;20563;-77
2022/07/02 11:01:15;;;;;;;0.90;0.05;;;;;;;24.42;24.37;102127.63;4997432;28;20132;-76
2022/07/02 11:03:57;;;;;;;3.85;0.10;;;;;;;24.39;22.20;102119.78;4981823;28;20045;-80
2022/07/02 11:06:28;;;;;;;2.80;0.10;;;;;;;24.12;21.83;102118.34;4996983;28;20586;-77
2022/07/02 11:09:04;;;;;;;1.92;0.10;;;;;;;23.26;23.67;102114.22;4981908;28;20041;-79
2022/07/02 11:11:36;;;;;;;2.28;0.40;;;;;;;24.02;22.88;102112.03;5000244;28;20038;-80
2022/07/02 11:14:03;;;;;;;;;;;;;;;23.56;22.59;102111.06;4996746;28;20072;-78
2022/07/02 11:16:37;;;;;;;1.42;0.40;;;;;;;24.16;21.41;102111.78;5000469;28;19988;-79
2022/07/02 11:19:05;;;;;;;0.75;0.10;;;;;;;23.05;22.85;102106.00;4977748;28;20103;-78
2022/07/02 11:21:31;;;;;;;0.90;0.03;;;;;;;22.49;24.20;102119.78;4998245;28;20038;-78
2022/07/02 11:23:57;;;;;;;2.35;0.10;;;;;;;22.48;24.00;102118.09;4995884;28;20638;-81
2022/07/02 11:26:27;;;;;;;1.35;0.10;;;;;;;22.57;23.49;102111.25;4999720;28;20034;-79
2022/07/02 11:28:54;;;;;;;0.20;0.10;;;;;;;22.54;24.35;102112.34;4994132;28;20532;-78
2022/07/02 11:31:21;;;;;;;1.27;0.28;;;;;;;22.71;23.78;102120.94;5011379;28;20485;-78